Time;durP1;ratioP1;P1;durP2;ratioP2;P2;SDS_P1;SDS_P2;PMS_P1;PMS_P2;Temp;Humidity;BMP_temperature;BMP_pressure;BME280_temperature;BME280_humidity;BME280_pressure;Samples;Min_cycle;Max_cycle;Signal;HPM_P1;HPM_P2
2023/07/07 00:02:06;;;;;;;17.05;6.90;;;;;;;;;;6146528;23;20039;-66
2023/07/07 00:04:31;;;;;;;11.55;6.65;;;;;;;;;;6146343;23;20483;-66
2023/07/07 00:06:57;;;;;;;12.20;7.15;;;;;;;;;;6145020;22;20009;-65
2023/07/07 00:09:24;;;;;;;13.85;6.60;;;;;;;;;;6146439;23;20041;-65
2023/07/07 00:11:50;;;;;;;11.77;7.32;;;;;;;;;;6146506;23;20017;-65
2023/07/07 00:14:16;;;;;;;9.50;6.45;;;;;;;;;;6147292;23;20010;-65
2023/07/07 00:16:42;;;;;;;9.10;6.50;;;;;;;;;;6147458;23;20312;-66
2023/07/07 00:19:09;;;;;;;14.77;6.85;;;;;;;;;;6149393;23;20014;-66
2023/07/07 00:21:36;;;;;;;11.75;7.15;;;;;;;;;;6149081;23;20021;-66
2023/07/07 00:24:03;;;;;;;18.05;7.38;;;;;;;;;;6149465;23;20066;-66
2023/07/07 00:26:29;;;;;;;11.95;7.75;;;;;;;;;;6148689;23;20005;-65
2023/07/07 00:28:54;;;;;;;12.63;7.47;;;;;;;;;;6148118;23;20015;-66
2023/07/07 00:31:23;;;;;;;11.98;7.57;;;;;;;;;;6149002;23;20089;-66
2023/07/07 00:33:48;;;;;;;11.43;7.13;;;;;;;;;;6147015;23;20075;-66
2023/07/07 00:36:14;;;;;;;10.82;7.20;;;;;;;;;;6122015;23;20064;-65
2023/07/07 00:38:40;;;;;;;11.05;7.00;;;;;;;;;;6148586;23;20081;-66
2023/07/07 00:41:07;;;;;;;11.80;7.03;;;;;;;;;;6122489;23;20008;-65
2023/07/07 00:43:34;;;;;;;14.02;8.00;;;;;;;;;;6171813;23;20022;-65
2023/07/07 00:46:00;;;;;;;13.65;7.85;;;;;;;;;;6148121;23;20006;-66
2023/07/07 00:48:31;;;;;;;13.10;7.88;;;;;;;;;;6149028;23;20052;-66
2023/07/07 00:51:16;;;;;;;13.65;7.38;;;;;;;;;;6148784;23;20055;-66
2023/07/07 00:53:45;;;;;;;13.05;7.05;;;;;;;;;;6148340;23;20092;-66
2023/07/07 00:56:21;;;;;;;10.30;7.05;;;;;;;;;;6148156;22;20001;-66
2023/07/07 00:58:46;;;;;;;12.98;7.00;;;;;;;;;;6148560;23;20005;-66
2023/07/07 01:01:17;;;;;;;15.05;6.45;;;;;;;;;;6148659;23;20081;-66
2023/07/07 01:03:47;;;;;;;8.73;6.80;;;;;;;;;;6148871;23;20037;-65
2023/07/07 01:06:16;;;;;;;11.15;6.95;;;;;;;;;;6121787;23;20435;-66
2023/07/07 01:08:47;;;;;;;8.52;6.55;;;;;;;;;;6146984;23;20494;-66
2023/07/07 01:11:17;;;;;;;9.10;6.45;;;;;;;;;;6122257;23;20518;-66
2023/07/07 01:13:43;;;;;;;10.13;6.30;;;;;;;;;;6147209;23;20029;-66
2023/07/07 01:16:19;;;;;;;11.07;6.47;;;;;;;;;;6148326;23;20435;-66
2023/07/07 01:18:51;;;;;;;10.93;6.18;;;;;;;;;;6146689;23;20021;-67
2023/07/07 01:21:39;;;;;;;17.70;7.28;;;;;;;;;;6122330;23;20021;-66
2023/07/07 01:24:11;;;;;;;16.00;6.65;;;;;;;;;;6147006;23;20462;-66
2023/07/07 01:27:06;;;;;;;11.88;7.00;;;;;;;;;;6147947;23;20020;-66
2023/07/07 01:29:59;;;;;;;12.95;5.95;;;;;;;;;;6171078;23;20018;-66
2023/07/07 01:32:29;;;;;;;21.05;7.00;;;;;;;;;;6122384;23;20442;-66
2023/07/07 01:35:00;;;;;;;12.23;6.95;;;;;;;;;;6148715;22;20037;-66
2023/07/07 01:37:26;;;;;;;12.63;6.32;;;;;;;;;;6171386;23;20078;-65
2023/07/07 01:39:53;;;;;;;11.35;7.03;;;;;;;;;;6149010;23;20343;-66
2023/07/07 01:42:45;;;;;;;13.10;6.68;;;;;;;;;;6148545;23;20343;-66
2023/07/07 01:45:23;;;;;;;10.55;6.85;;;;;;;;;;6148585;23;20017;-66
2023/07/07 01:48:03;;;;;;;15.27;6.68;;;;;;;;;;6171169;23;20020;-67
2023/07/07 01:50:32;;;;;;;11.00;7.47;;;;;;;;;;6122742;23;20025;-66
2023/07/07 01:53:08;;;;;;;12.85;7.38;;;;;;;;;;6121829;23;20391;-66
2023/07/07 01:55:40;;;;;;;10.98;7.20;;;;;;;;;;6171157;23;20533;-66
2023/07/07 01:58:09;;;;;;;10.83;7.30;;;;;;;;;;6121535;23;20146;-66
2023/07/07 02:00:35;;;;;;;9.55;6.53;;;;;;;;;;6171560;23;20005;-65
2023/07/07 02:03:06;;;;;;;12.48;6.85;;;;;;;;;;6146641;23;20016;-66
2023/07/07 02:05:32;;;;;;;9.73;7.07;;;;;;;;;;6148293;23;20385;-66
2023/07/07 02:07:57;;;;;;;9.98;6.90;;;;;;;;;;6148282;23;20009;-66
2023/07/07 02:10:23;;;;;;;13.68;6.82;;;;;;;;;;6122295;23;20032;-66
2023/07/07 02:12:49;;;;;;;9.52;6.70;;;;;;;;;;6121876;23;20372;-66
2023/07/07 02:15:15;;;;;;;10.77;7.13;;;;;;;;;;6122210;23;20465;-66
2023/07/07 02:17:40;;;;;;;10.35;7.07;;;;;;;;;;6170883;23;20151;-66
2023/07/07 02:20:08;;;;;;;10.15;6.85;;;;;;;;;;6121992;23;20027;-66
2023/07/07 02:22:35;;;;;;;11.85;6.93;;;;;;;;;;6121921;23;20002;-66
2023/07/07 02:25:02;;;;;;;9.55;6.70;;;;;;;;;;6148448;23;20009;-65
2023/07/07 02:27:29;;;;;;;12.77;6.70;;;;;;;;;;6145649;23;20096;-66
2023/07/07 02:29:55;;;;;;;10.10;6.97;;;;;;;;;;6146560;23;20021;-66
2023/07/07 02:32:20;;;;;;;9.40;6.50;;;;;;;;;;6148316;23;20002;-66
2023/07/07 02:34:49;;;;;;;12.48;6.88;;;;;;;;;;6145857;23;20014;-66
2023/07/07 02:37:16;;;;;;;10.07;5.95;;;;;;;;;;6145999;23;20005;-66
2023/07/07 02:39:44;;;;;;;15.20;6.97;;;;;;;;;;6144341;23;20481;-66
2023/07/07 02:42:11;;;;;;;9.90;6.28;;;;;;;;;;6146418;23;20005;-65
2023/07/07 02:44:38;;;;;;;9.55;6.70;;;;;;;;;;6144550;23;20010;-65
2023/07/07 02:47:04;;;;;;;14.95;7.40;;;;;;;;;;6145918;23;20423;-66
2023/07/07 02:49:30;;;;;;;13.32;7.47;;;;;;;;;;6144610;23;20017;-67
2023/07/07 02:51:56;;;;;;;11.55;7.38;;;;;;;;;;6120070;23;20450;-65
2023/07/07 02:54:22;;;;;;;14.45;7.75;;;;;;;;;;6146481;23;20020;-66
2023/07/07 02:56:48;;;;;;;12.20;7.57;;;;;;;;;;6145973;23;20006;-65
2023/07/07 02:59:14;;;;;;;11.13;7.32;;;;;;;;;;6146786;23;20427;-67
2023/07/07 03:01:44;;;;;;;9.98;7.30;;;;;;;;;;6146352;23;20235;-66
2023/07/07 03:04:11;;;;;;;10.50;7.53;;;;;;;;;;6145722;23;20017;-66
2023/07/07 03:06:37;;;;;;;13.85;8.00;;;;;;;;;;6120128;23;20116;-66
2023/07/07 03:09:03;;;;;;;12.27;6.80;;;;;;;;;;6148098;23;20037;-66
2023/07/07 03:11:29;;;;;;;10.80;7.22;;;;;;;;;;6147929;23;20019;-66
2023/07/07 03:13:55;;;;;;;14.07;8.25;;;;;;;;;;6121863;23;20025;-66
2023/07/07 03:16:31;;;;;;;11.02;7.63;;;;;;;;;;6170611;23;20023;-66
2023/07/07 03:19:08;;;;;;;12.07;7.40;;;;;;;;;;6121859;23;20018;-65
2023/07/07 03:21:40;;;;;;;10.73;7.85;;;;;;;;;;6170909;23;20320;-66
2023/07/07 03:24:18;;;;;;;9.77;7.00;;;;;;;;;;6121314;23;20105;-65
2023/07/07 03:26:45;;;;;;;11.82;7.20;;;;;;;;;;6121310;23;20424;-66
2023/07/07 03:29:13;;;;;;;15.48;7.38;;;;;;;;;;6121323;23;20009;-66
2023/07/07 03:31:41;;;;;;;13.00;7.53;;;;;;;;;;6121508;23;20022;-66
2023/07/07 03:34:07;;;;;;;12.85;7.20;;;;;;;;;;6121238;23;20005;-67
2023/07/07 03:36:38;;;;;;;15.65;7.53;;;;;;;;;;6121192;23;20013;-66
2023/07/07 03:39:06;;;;;;;9.32;7.05;;;;;;;;;;6121526;23;20443;-66
2023/07/07 03:41:33;;;;;;;10.98;6.75;;;;;;;;;;6120959;23;20009;-66
2023/07/07 03:44:03;;;;;;;10.90;6.85;;;;;;;;;;6121190;23;20340;-66
2023/07/07 03:46:32;;;;;;;9.48;6.80;;;;;;;;;;6120525;23;20096;-66
2023/07/07 03:48:59;;;;;;;15.70;6.30;;;;;;;;;;6121292;23;20048;-65
2023/07/07 03:51:34;;;;;;;13.55;7.03;;;;;;;;;;6121002;23;20351;-66
2023/07/07 03:54:03;;;;;;;;;;;;;;;;;;6146594;23;20111;-66
2023/07/07 03:56:29;;;;;;;17.30;7.05;;;;;;;;;;6120937;23;19911;-66
2023/07/07 03:58:55;;;;;;;8.02;6.20;;;;;;;;;;6148346;23;20013;-66
2023/07/07 04:01:20;;;;;;;11.57;6.75;;;;;;;;;;6123238;23;20343;-67
2023/07/07 04:03:47;;;;;;;13.88;6.45;;;;;;;;;;6123168;23;20454;-67
2023/07/07 04:06:18;;;;;;;15.27;7.20;;;;;;;;;;6122754;23;20021;-65
2023/07/07 04:08:44;;;;;;;12.73;7.28;;;;;;;;;;6149394;22;20013;-66
2023/07/07 04:11:21;;;;;;;9.93;7.13;;;;;;;;;;6147458;23;20450;-66
2023/07/07 04:13:49;;;;;;;10.57;6.70;;;;;;;;;;6149003;23;20009;-66
2023/07/07 04:16:24;;;;;;;9.88;7.35;;;;;;;;;;6147046;23;20012;-66
2023/07/07 04:18:53;;;;;;;11.85;6.90;;;;;;;;;;6147818;23;20014;-65
2023/07/07 04:21:22;;;;;;;9.35;6.10;;;;;;;;;;6122930;23;20097;-65
2023/07/07 04:23:50;;;;;;;11.43;7.00;;;;;;;;;;6147608;23;20092;-66
2023/07/07 04:26:18;;;;;;;8.90;6.28;;;;;;;;;;6148817;23;20364;-66
2023/07/07 04:28:44;;;;;;;11.48;6.28;;;;;;;;;;6149005;23;20009;-66
2023/07/07 04:31:11;;;;;;;13.35;6.68;;;;;;;;;;6149154;23;20006;-66
2023/07/07 04:33:38;;;;;;;7.55;6.40;;;;;;;;;;6148959;23;20099;-65
2023/07/07 04:36:07;;;;;;;9.80;6.88;;;;;;;;;;6149379;23;20010;-66
2023/07/07 04:38:34;;;;;;;15.05;7.35;;;;;;;;;;6148837;23;20362;-67
2023/07/07 04:41:11;;;;;;;16.60;6.85;;;;;;;;;;6148716;23;20422;-65
2023/07/07 04:43:42;;;;;;;11.45;7.10;;;;;;;;;;6149555;23;20037;-65
2023/07/07 04:46:10;;;;;;;12.48;6.90;;;;;;;;;;6148781;23;20013;-65
2023/07/07 04:48:36;;;;;;;14.20;6.50;;;;;;;;;;6148148;23;20435;-66
2023/07/07 04:51:06;;;;;;;8.50;6.57;;;;;;;;;;6148633;23;20026;-66
2023/07/07 04:53:32;;;;;;;10.50;6.28;;;;;;;;;;6148608;22;20047;-66
2023/07/07 04:55:59;;;;;;;8.48;5.55;;;;;;;;;;6148790;22;20016;-66
2023/07/07 04:58:26;;;;;;;11.32;6.50;;;;;;;;;;6123011;23;20036;-66
2023/07/07 05:00:53;;;;;;;13.35;7.18;;;;;;;;;;6149243;23;20289;-66
2023/07/07 05:03:19;;;;;;;16.42;7.32;;;;;;;;;;6149452;23;20017;-66
2023/07/07 05:05:45;;;;;;;9.07;6.68;;;;;;;;;;6149698;23;20007;-66
2023/07/07 05:08:11;;;;;;;11.70;5.55;;;;;;;;;;6150079;23;20097;-66
2023/07/07 05:10:36;;;;;;;16.67;7.07;;;;;;;;;;6150292;23;20005;-67
2023/07/07 05:13:03;;;;;;;9.73;5.90;;;;;;;;;;6149144;23;20577;-67
2023/07/07 05:15:30;;;;;;;9.77;6.22;;;;;;;;;;6148281;23;20508;-66
2023/07/07 05:17:56;;;;;;;10.27;6.05;;;;;;;;;;6148299;22;20006;-66
2023/07/07 05:20:21;;;;;;;8.70;5.88;;;;;;;;;;6149928;23;19997;-66
2023/07/07 05:22:47;;;;;;;12.98;5.80;;;;;;;;;;6148873;22;20132;-67
2023/07/07 05:25:13;;;;;;;7.25;5.32;;;;;;;;;;6150240;23;20339;-66
2023/07/07 05:27:38;;;;;;;10.20;5.90;;;;;;;;;;6149286;23;20346;-66
2023/07/07 05:30:05;;;;;;;12.10;5.82;;;;;;;;;;6149964;23;20182;-66
2023/07/07 05:32:31;;;;;;;14.05;5.68;;;;;;;;;;6149762;23;20109;-67
2023/07/07 05:34:57;;;;;;;10.10;5.05;;;;;;;;;;6149716;23;20005;-66
2023/07/07 05:37:23;;;;;;;9.90;5.40;;;;;;;;;;6149593;22;20055;-66
2023/07/07 05:39:48;;;;;;;11.18;4.78;;;;;;;;;;6150163;23;19998;-66
2023/07/07 05:42:14;;;;;;;7.82;5.20;;;;;;;;;;6149703;23;20002;-66
2023/07/07 05:44:40;;;;;;;9.55;5.80;;;;;;;;;;6150884;23;20011;-66
2023/07/07 05:47:05;;;;;;;6.50;5.07;;;;;;;;;;6149995;23;20035;-66
2023/07/07 05:49:31;;;;;;;13.02;5.78;;;;;;;;;;6150324;23;20043;-66
2023/07/07 05:51:57;;;;;;;11.25;4.93;;;;;;;;;;6148410;23;20328;-66
2023/07/07 05:54:23;;;;;;;9.38;5.45;;;;;;;;;;6150227;22;20088;-66
2023/07/07 05:56:50;;;;;;;8.48;4.25;;;;;;;;;;6150058;22;20025;-66
2023/07/07 05:59:15;;;;;;;8.35;4.78;;;;;;;;;;6150165;23;20001;-66
2023/07/07 06:01:41;;;;;;;12.75;4.55;;;;;;;;;;6150474;23;20151;-66
2023/07/07 06:04:07;;;;;;;8.13;4.68;;;;;;;;;;6150289;23;20483;-68
2023/07/07 06:06:33;;;;;;;11.43;5.13;;;;;;;;;;6149886;23;20337;-66
2023/07/07 06:08:58;;;;;;;5.70;4.38;;;;;;;;;;6150108;22;20105;-67
2023/07/07 06:11:24;;;;;;;8.88;4.63;;;;;;;;;;6149657;22;20415;-64
2023/07/07 06:13:50;;;;;;;9.10;4.80;;;;;;;;;;6122449;23;20016;-66
2023/07/07 06:16:17;;;;;;;7.22;4.57;;;;;;;;;;6149480;23;20014;-67
2023/07/07 06:18:43;;;;;;;7.78;4.57;;;;;;;;;;6149974;23;20080;-65
2023/07/07 06:21:09;;;;;;;7.65;4.57;;;;;;;;;;6123338;23;20049;-66
2023/07/07 06:23:34;;;;;;;11.25;4.22;;;;;;;;;;6149655;23;19993;-66
2023/07/07 06:26:00;;;;;;;7.00;4.05;;;;;;;;;;6149479;23;20372;-67
2023/07/07 06:28:26;;;;;;;11.70;4.13;;;;;;;;;;6149743;23;20553;-67
2023/07/07 06:30:53;;;;;;;13.98;4.70;;;;;;;;;;6149340;23;20014;-67
2023/07/07 06:33:20;;;;;;;14.63;4.72;;;;;;;;;;6149055;23;20014;-68
2023/07/07 06:35:46;;;;;;;12.65;4.63;;;;;;;;;;6149307;23;20021;-67
2023/07/07 06:38:12;;;;;;;10.82;4.22;;;;;;;;;;6149513;23;20046;-67
2023/07/07 06:40:37;;;;;;;14.15;4.97;;;;;;;;;;6150389;23;20018;-68
2023/07/07 06:43:03;;;;;;;11.48;4.80;;;;;;;;;;6149896;23;20025;-69
2023/07/07 06:45:31;;;;;;;7.05;4.15;;;;;;;;;;6148579;23;20018;-68
2023/07/07 06:47:58;;;;;;;15.10;4.60;;;;;;;;;;6150168;23;20002;-67
2023/07/07 06:50:30;;;;;;;11.18;4.50;;;;;;;;;;6150181;23;20439;-66
2023/07/07 06:52:55;;;;;;;13.18;4.80;;;;;;;;;;6150302;23;20013;-66
2023/07/07 06:55:22;;;;;;;8.88;4.50;;;;;;;;;;6123673;23;20339;-66
2023/07/07 06:57:48;;;;;;;11.93;4.72;;;;;;;;;;6150270;23;20029;-66
2023/07/07 07:00:14;;;;;;;8.20;4.63;;;;;;;;;;6150175;23;20067;-66
2023/07/07 07:02:41;;;;;;;11.20;4.30;;;;;;;;;;6148245;23;20044;-67
2023/07/07 07:05:07;;;;;;;9.15;4.40;;;;;;;;;;6124405;23;20059;-64
2023/07/07 07:07:33;;;;;;;8.23;4.88;;;;;;;;;;6149318;22;20016;-67
2023/07/07 07:10:00;;;;;;;10.57;4.38;;;;;;;;;;6149429;23;20002;-66
2023/07/07 07:12:26;;;;;;;8.13;4.00;;;;;;;;;;6149272;22;20013;-67
2023/07/07 07:14:52;;;;;;;10.27;4.30;;;;;;;;;;6148309;22;20009;-68
2023/07/07 07:17:18;;;;;;;10.63;3.88;;;;;;;;;;6148876;23;20018;-68
2023/07/07 07:19:44;;;;;;;5.68;3.88;;;;;;;;;;6149730;23;20027;-68
2023/07/07 07:22:09;;;;;;;9.52;4.40;;;;;;;;;;6149755;23;20053;-67
2023/07/07 07:24:35;;;;;;;10.05;4.32;;;;;;;;;;6149875;23;20002;-68
2023/07/07 07:27:01;;;;;;;8.43;3.83;;;;;;;;;;6148457;23;20039;-68
2023/07/07 07:29:26;;;;;;;7.45;4.50;;;;;;;;;;6149411;23;19997;-67
2023/07/07 07:31:52;;;;;;;8.25;4.05;;;;;;;;;;6149246;23;20020;-67
2023/07/07 07:34:29;;;;;;;9.15;4.20;;;;;;;;;;6149208;23;20096;-67
2023/07/07 07:36:57;;;;;;;7.82;4.50;;;;;;;;;;6149687;23;20012;-67
2023/07/07 07:39:24;;;;;;;13.25;4.70;;;;;;;;;;6149409;23;20050;-67
2023/07/07 07:41:51;;;;;;;5.57;3.97;;;;;;;;;;6149653;23;20005;-67
2023/07/07 07:44:19;;;;;;;8.60;3.67;;;;;;;;;;6149656;22;20032;-66
2023/07/07 07:46:46;;;;;;;8.43;3.70;;;;;;;;;;6148847;23;20025;-68
2023/07/07 07:49:12;;;;;;;8.63;4.50;;;;;;;;;;6149752;22;20334;-68
2023/07/07 07:51:39;;;;;;;10.02;7.80;;;;;;;;;;6149364;22;20036;-67
2023/07/07 07:54:10;;;;;;;6.93;4.18;;;;;;;;;;6149196;23;20010;-67
2023/07/07 07:56:37;;;;;;;5.30;3.67;;;;;;;;;;6151055;23;20009;-68
2023/07/07 07:59:04;;;;;;;9.32;4.28;;;;;;;;;;6151141;23;20010;-66
2023/07/07 08:01:29;;;;;;;9.35;4.65;;;;;;;;;;6148824;23;20036;-67
2023/07/07 08:03:55;;;;;;;7.88;4.20;;;;;;;;;;6149320;23;20420;-68
2023/07/07 08:06:21;;;;;;;7.68;3.95;;;;;;;;;;6148411;23;20056;-68
2023/07/07 08:08:47;;;;;;;9.38;4.25;;;;;;;;;;6149266;23;20007;-67
2023/07/07 08:11:19;;;;;;;9.90;4.57;;;;;;;;;;6148379;23;20056;-68
2023/07/07 08:13:45;;;;;;;6.63;3.60;;;;;;;;;;6148600;23;20013;-67
2023/07/07 08:16:12;;;;;;;10.75;3.90;;;;;;;;;;6122511;23;20009;-67
2023/07/07 08:18:39;;;;;;;4.25;3.22;;;;;;;;;;6148506;23;20451;-67
2023/07/07 08:21:05;;;;;;;9.20;3.20;;;;;;;;;;6148528;23;19998;-68
2023/07/07 08:23:31;;;;;;;5.05;2.95;;;;;;;;;;6148564;23;20013;-68
2023/07/07 08:25:57;;;;;;;4.13;3.13;;;;;;;;;;6148478;23;20001;-67
2023/07/07 08:28:23;;;;;;;4.35;3.10;;;;;;;;;;6148879;23;20021;-67
2023/07/07 08:30:48;;;;;;;4.50;3.15;;;;;;;;;;6148158;23;20084;-67
2023/07/07 08:33:15;;;;;;;5.95;3.45;;;;;;;;;;6148339;23;20298;-67
2023/07/07 08:35:41;;;;;;;14.40;3.78;;;;;;;;;;6148500;23;20439;-67
2023/07/07 08:38:07;;;;;;;6.70;3.60;;;;;;;;;;6149173;22;20009;-67
2023/07/07 08:40:45;;;;;;;6.03;3.15;;;;;;;;;;6150106;23;20006;-68
2023/07/07 08:43:11;;;;;;;4.00;2.70;;;;;;;;;;6149690;23;20021;-67
2023/07/07 08:45:40;;;;;;;6.07;3.20;;;;;;;;;;6149669;23;20001;-67
2023/07/07 08:48:56;;;;;;;7.43;3.45;;;;;;;;;;6149950;23;20012;-68
2023/07/07 08:51:36;;;;;;;6.88;3.30;;;;;;;;;;6155261;23;20017;-67
2023/07/07 08:54:31;;;;;;;4.57;2.88;;;;;;;;;;6150506;23;20013;-67
2023/07/07 08:57:05;;;;;;;6.10;3.47;;;;;;;;;;6155449;23;20011;-67
2023/07/07 08:59:49;;;;;;;5.38;2.83;;;;;;;;;;6150715;23;20012;-67
2023/07/07 09:02:31;;;;;;;5.72;3.70;;;;;;;;;;6150024;23;20384;-67
2023/07/07 09:05:36;;;;;;;6.17;3.83;;;;;;;;;;6150481;23;20029;-66
2023/07/07 09:08:21;;;;;;;6.95;3.20;;;;;;;;;;6149466;23;20013;-67
2023/07/07 09:11:00;;;;;;;8.43;3.97;;;;;;;;;;6149089;23;20013;-68
2023/07/07 09:13:29;;;;;;;6.40;3.47;;;;;;;;;;6150007;23;20066;-67
2023/07/07 09:16:08;;;;;;;5.00;3.17;;;;;;;;;;6150013;23;20427;-67
2023/07/07 09:18:39;;;;;;;6.30;3.55;;;;;;;;;;6150021;23;20070;-67
2023/07/07 09:21:24;;;;;;;4.63;3.40;;;;;;;;;;6150206;23;20016;-67
2023/07/07 09:23:55;;;;;;;5.18;3.45;;;;;;;;;;6149900;23;20377;-68
2023/07/07 09:26:30;;;;;;;4.55;3.33;;;;;;;;;;6149388;23;20435;-67
2023/07/07 09:28:58;;;;;;;10.32;3.95;;;;;;;;;;6150311;23;20013;-67
2023/07/07 09:31:43;;;;;;;4.47;3.45;;;;;;;;;;6150201;22;20055;-67
2023/07/07 09:34:11;;;;;;;5.88;3.30;;;;;;;;;;6149794;23;20393;-67
2023/07/07 09:36:42;;;;;;;7.53;3.58;;;;;;;;;;6148237;23;20004;-67
2023/07/07 09:39:08;;;;;;;4.75;3.25;;;;;;;;;;6149641;23;20063;-68
2023/07/07 09:42:11;;;;;;;6.63;3.40;;;;;;;;;;6149594;23;20010;-67
2023/07/07 09:45:08;;;;;;;4.38;3.70;;;;;;;;;;6173150;23;20439;-67
2023/07/07 09:47:40;;;;;;;5.85;3.47;;;;;;;;;;6149409;23;20010;-67
2023/07/07 09:50:06;;;;;;;5.70;3.27;;;;;;;;;;6149042;23;20016;-67
2023/07/07 09:52:41;;;;;;;7.00;3.75;;;;;;;;;;6149946;23;20009;-66
2023/07/07 09:55:27;;;;;;;11.20;4.35;;;;;;;;;;6150077;23;20398;-67
2023/07/07 09:58:08;;;;;;;5.45;3.72;;;;;;;;;;6149935;23;20013;-67
2023/07/07 10:00:35;;;;;;;13.48;3.60;;;;;;;;;;6148548;23;20009;-69
2023/07/07 10:03:04;;;;;;;11.32;4.72;;;;;;;;;;6149278;23;20021;-67
2023/07/07 10:05:34;;;;;;;11.60;3.60;;;;;;;;;;6149453;23;20016;-67
2023/07/07 10:08:05;;;;;;;7.15;3.78;;;;;;;;;;6150389;23;20005;-68
2023/07/07 10:10:31;;;;;;;8.60;3.90;;;;;;;;;;6149781;23;20010;-67
2023/07/07 10:12:57;;;;;;;8.15;4.07;;;;;;;;;;6149125;23;20014;-70
2023/07/07 10:15:39;;;;;;;6.68;3.70;;;;;;;;;;6149302;23;20064;-68
2023/07/07 10:18:14;;;;;;;4.95;3.88;;;;;;;;;;6149166;23;20005;-67
2023/07/07 10:20:40;;;;;;;8.73;3.67;;;;;;;;;;6149332;23;20010;-68
2023/07/07 10:23:10;;;;;;;7.20;4.20;;;;;;;;;;6149667;23;20001;-68
2023/07/07 10:25:35;;;;;;;5.90;3.78;;;;;;;;;;6148868;23;20013;-68
2023/07/07 10:28:01;;;;;;;6.10;3.75;;;;;;;;;;6148055;23;20017;-68
2023/07/07 10:30:27;;;;;;;5.50;3.80;;;;;;;;;;6148100;22;20010;-69
2023/07/07 10:32:54;;;;;;;5.82;4.07;;;;;;;;;;6150161;23;20339;-68
2023/07/07 10:35:23;;;;;;;5.55;3.53;;;;;;;;;;6150494;23;20017;-68
2023/07/07 10:37:49;;;;;;;5.57;3.70;;;;;;;;;;6148588;22;20092;-69
2023/07/07 10:40:21;;;;;;;4.65;3.65;;;;;;;;;;6150303;23;20066;-69
2023/07/07 10:42:53;;;;;;;5.47;3.60;;;;;;;;;;6150311;23;20338;-69
2023/07/07 10:45:21;;;;;;;6.07;4.20;;;;;;;;;;6150349;23;20009;-69
2023/07/07 10:47:46;;;;;;;10.57;4.05;;;;;;;;;;6150141;23;20096;-70
2023/07/07 10:50:16;;;;;;;9.02;4.70;;;;;;;;;;6148936;23;20048;-70
2023/07/07 10:52:46;;;;;;;7.10;3.53;;;;;;;;;;6149704;23;20013;-69
2023/07/07 10:55:15;;;;;;;6.70;3.67;;;;;;;;;;6150431;23;20005;-70
2023/07/07 10:58:06;;;;;;;5.35;3.70;;;;;;;;;;6149446;22;20082;-70
2023/07/07 11:00:53;;;;;;;14.40;4.40;;;;;;;;;;6150044;23;20013;-68
2023/07/07 11:03:47;;;;;;;4.88;3.67;;;;;;;;;;6150006;23;20043;-69
2023/07/07 11:06:44;;;;;;;6.93;3.60;;;;;;;;;;6150524;23;20422;-69
2023/07/07 11:09:13;;;;;;;6.32;3.97;;;;;;;;;;6150427;23;20009;-69
2023/07/07 11:11:58;;;;;;;6.32;3.72;;;;;;;;;;6149675;23;20104;-69
2023/07/07 11:14:29;;;;;;;6.95;4.03;;;;;;;;;;6150291;23;20017;-69
2023/07/07 11:17:03;;;;;;;6.00;3.63;;;;;;;;;;6150145;23;20014;-69
2023/07/07 11:19:47;;;;;;;4.93;3.60;;;;;;;;;;6150442;23;20041;-69
2023/07/07 11:22:28;;;;;;;7.07;4.43;;;;;;;;;;6123786;23;20113;-69
2023/07/07 11:25:13;;;;;;;7.13;4.03;;;;;;;;;;6150026;23;20005;-69
2023/07/07 11:27:54;;;;;;;6.57;4.13;;;;;;;;;;6149594;23;20500;-69
2023/07/07 11:30:44;;;;;;;8.40;4.43;;;;;;;;;;6149903;23;20101;-69
2023/07/07 11:33:22;;;;;;;6.60;3.90;;;;;;;;;;6123616;23;20024;-69
2023/07/07 11:36:08;;;;;;;5.85;4.07;;;;;;;;;;6150366;23;20071;-69
2023/07/07 11:38:50;;;;;;;7.95;4.30;;;;;;;;;;6149781;23;20082;-69
2023/07/07 11:41:42;;;;;;;7.40;3.97;;;;;;;;;;6150049;23;20040;-69
2023/07/07 11:44:26;;;;;;;12.30;3.55;;;;;;;;;;6149707;23;20009;-69
2023/07/07 11:47:01;;;;;;;4.65;3.70;;;;;;;;;;6149875;23;20017;-69
2023/07/07 11:49:48;;;;;;;7.22;4.00;;;;;;;;;;6123506;23;20079;-69
2023/07/07 11:52:23;;;;;;;6.93;4.38;;;;;;;;;;6150178;23;20348;-68
2023/07/07 11:55:00;;;;;;;7.97;3.97;;;;;;;;;;6150288;23;20451;-69
2023/07/07 11:57:44;;;;;;;5.20;4.00;;;;;;;;;;6149607;23;20020;-69
2023/07/07 12:00:42;;;;;;;5.82;4.32;;;;;;;;;;6123846;23;20097;-68
2023/07/07 12:03:27;;;;;;;7.47;4.20;;;;;;;;;;6149322;23;20016;-68
2023/07/07 12:05:56;;;;;;;6.55;4.15;;;;;;;;;;6149283;23;20014;-70
2023/07/07 12:08:36;;;;;;;5.97;3.65;;;;;;;;;;6148598;23;20069;-69
2023/07/07 12:11:04;;;;;;;5.32;4.18;;;;;;;;;;6148289;23;20013;-70
2023/07/07 12:13:35;;;;;;;5.55;4.10;;;;;;;;;;6150600;23;20066;-69
2023/07/07 12:16:23;;;;;;;4.90;3.70;;;;;;;;;;6150596;23;20013;-70
2023/07/07 12:18:55;;;;;;;5.93;3.58;;;;;;;;;;6151367;23;20074;-68
2023/07/07 12:21:31;;;;;;;7.47;4.10;;;;;;;;;;6150819;23;20028;-69
2023/07/07 12:24:09;;;;;;;7.32;4.03;;;;;;;;;;6150860;23;20041;-69
2023/07/07 12:26:41;;;;;;;6.93;4.03;;;;;;;;;;6150711;23;20099;-69
2023/07/07 12:29:11;;;;;;;6.63;4.10;;;;;;;;;;6150698;23;20020;-69
2023/07/07 12:31:37;;;;;;;6.53;3.78;;;;;;;;;;6151053;23;20277;-69
2023/07/07 12:34:39;;;;;;;6.55;4.03;;;;;;;;;;6151951;23;20032;-69
2023/07/07 12:37:16;;;;;;;5.90;3.60;;;;;;;;;;6150453;23;20010;-68
2023/07/07 12:40:04;;;;;;;5.63;4.47;;;;;;;;;;6151316;23;20036;-68
2023/07/07 12:42:32;;;;;;;5.00;4.18;;;;;;;;;;6150892;23;20075;-68
2023/07/07 12:45:15;;;;;;;7.03;4.18;;;;;;;;;;6150466;23;20006;-69
2023/07/07 12:47:41;;;;;;;7.22;4.28;;;;;;;;;;6150116;23;20036;-69
2023/07/07 12:50:26;;;;;;;4.75;3.70;;;;;;;;;;6150716;23;20009;-68
2023/07/07 12:52:58;;;;;;;4.85;3.80;;;;;;;;;;6150553;23;20093;-67
2023/07/07 12:55:30;;;;;;;5.72;4.07;;;;;;;;;;6149057;23;20010;-68
2023/07/07 12:57:58;;;;;;;5.35;4.15;;;;;;;;;;6150578;23;20016;-68
2023/07/07 13:00:33;;;;;;;8.45;4.10;;;;;;;;;;6149097;23;20009;-69
2023/07/07 13:03:11;;;;;;;4.20;3.80;;;;;;;;;;6149906;23;20040;-68
2023/07/07 13:05:44;;;;;;;6.10;4.47;;;;;;;;;;6149620;23;20010;-69
2023/07/07 13:08:10;;;;;;;8.98;4.03;;;;;;;;;;6149543;23;20037;-69
2023/07/07 13:10:42;;;;;;;5.38;4.10;;;;;;;;;;6149947;23;20013;-69
2023/07/07 13:13:18;;;;;;;5.43;4.30;;;;;;;;;;6150099;23;20077;-68
2023/07/07 13:15:44;;;;;;;7.95;4.20;;;;;;;;;;6150128;22;20153;-70
2023/07/07 13:18:12;;;;;;;8.55;3.70;;;;;;;;;;6149729;23;20411;-69
2023/07/07 13:20:40;;;;;;;6.25;4.20;;;;;;;;;;6149816;23;20087;-68
2023/07/07 13:23:15;;;;;;;6.90;3.83;;;;;;;;;;6150225;23;19997;-69
2023/07/07 13:25:45;;;;;;;6.28;3.95;;;;;;;;;;6150089;23;20076;-68
2023/07/07 13:28:13;;;;;;;5.38;4.10;;;;;;;;;;6149557;23;20013;-68
2023/07/07 13:30:45;;;;;;;6.00;4.05;;;;;;;;;;6149930;23;20009;-67
2023/07/07 13:33:12;;;;;;;;;;;;;;;;;;6149379;23;20016;-68
2023/07/07 13:35:47;;;;;;;8.00;3.95;;;;;;;;;;6148198;23;19904;-68
2023/07/07 13:38:15;;;;;;;6.07;3.53;;;;;;;;;;6149013;23;20451;-69
2023/07/07 13:40:42;;;;;;;6.18;4.13;;;;;;;;;;6150371;23;20097;-69
2023/07/07 13:43:43;;;;;;;5.53;3.72;;;;;;;;;;6147312;23;20013;-68
2023/07/07 13:46:23;;;;;;;4.85;3.90;;;;;;;;;;6151680;23;20048;-68
2023/07/07 13:49:02;;;;;;;7.00;3.90;;;;;;;;;;6149933;23;20045;-69
2023/07/07 13:51:29;;;;;;;4.75;3.35;;;;;;;;;;6150265;23;20005;-69
2023/07/07 13:53:56;;;;;;;5.13;3.72;;;;;;;;;;6150363;23;20107;-67
2023/07/07 13:56:23;;;;;;;7.40;4.50;;;;;;;;;;6150050;23;20010;-68
2023/07/07 13:58:52;;;;;;;7.25;3.83;;;;;;;;;;6149451;23;20009;-67
2023/07/07 14:01:34;;;;;;;5.07;4.15;;;;;;;;;;6123686;23;20012;-67
2023/07/07 14:04:01;;;;;;;6.13;3.80;;;;;;;;;;6150318;23;20010;-67
2023/07/07 14:06:27;;;;;;;5.28;3.80;;;;;;;;;;6149809;23;20226;-67
2023/07/07 14:08:53;;;;;;;6.53;4.32;;;;;;;;;;6150379;23;20040;-67
2023/07/07 14:11:25;;;;;;;4.38;3.80;;;;;;;;;;6149444;23;20029;-67
2023/07/07 14:13:53;;;;;;;8.70;3.78;;;;;;;;;;6149838;23;20018;-67
2023/07/07 14:16:26;;;;;;;4.22;3.83;;;;;;;;;;6148775;23;20005;-67
2023/07/07 14:19:03;;;;;;;4.47;3.80;;;;;;;;;;6148750;23;20024;-69
2023/07/07 14:21:30;;;;;;;4.88;4.10;;;;;;;;;;6150493;23;20014;-67
2023/07/07 14:23:57;;;;;;;5.82;4.00;;;;;;;;;;6150083;22;20453;-67
2023/07/07 14:26:23;;;;;;;7.35;4.38;;;;;;;;;;6149946;23;20055;-67
2023/07/07 14:28:51;;;;;;;8.43;4.47;;;;;;;;;;6150004;23;20009;-67
2023/07/07 14:31:17;;;;;;;7.53;4.45;;;;;;;;;;6150325;23;20092;-67
2023/07/07 14:33:54;;;;;;;7.18;4.30;;;;;;;;;;6149462;23;20033;-68
2023/07/07 14:36:26;;;;;;;6.35;4.15;;;;;;;;;;6149467;23;20021;-69
2023/07/07 14:38:58;;;;;;;8.75;4.22;;;;;;;;;;6149577;23;20013;-68
2023/07/07 14:41:28;;;;;;;6.97;4.27;;;;;;;;;;6150116;23;20017;-68
2023/07/07 14:43:53;;;;;;;6.28;4.20;;;;;;;;;;6150173;23;20301;-68
2023/07/07 14:46:27;;;;;;;6.30;4.22;;;;;;;;;;6149702;23;20036;-68
2023/07/07 14:48:55;;;;;;;9.35;4.22;;;;;;;;;;6149852;23;20010;-67
2023/07/07 14:51:49;;;;;;;8.52;4.93;;;;;;;;;;6149444;22;20005;-69
2023/07/07 14:54:21;;;;;;;7.93;4.55;;;;;;;;;;6155431;23;20041;-67
2023/07/07 14:57:00;;;;;;;5.88;4.57;;;;;;;;;;6150077;23;20413;-67
2023/07/07 14:59:35;;;;;;;6.28;4.70;;;;;;;;;;6149562;23;20009;-68
2023/07/07 15:02:25;;;;;;;11.15;4.47;;;;;;;;;;6149154;23;20013;-68